Terminal Aerodrome Forecast
Issued by NWS Cleveland, OH

Home | Current Version | Previous Version | Graphics & Text | Print | Product List | Glossary On
Versions: 1 2 3 4 5 6 7 8 9 10 11 12 13 14 15 16 17
000
FTUS41 KCLE 021700
TAFCAK
TAF
KCAK 021734Z 0218/0318 29011KT P6SM SCT020 BKN030
     FM021900 29007KT P6SM SCT035 BKN250
     FM030500 VRB03KT P6SM BKN080 OVC200
     FM031500 14005KT 4SM -RASN BR SCT015 OVC040=

USA.gov is the U.S. government's official web portal to all federal, state and local government web resources and services.